createdAt,value
2019-03-08T00:00:52.668Z,8.55
2019-03-08T00:01:52.597Z,8.50
2019-03-08T00:02:52.693Z,8.47
2019-03-08T00:03:52.553Z,8.55
2019-03-08T00:04:52.628Z,8.54
2019-03-08T00:05:52.482Z,8.55
2019-03-08T00:06:52.500Z,8.60
2019-03-08T00:07:52.452Z,8.61
2019-03-08T00:08:52.418Z,8.52
2019-03-08T00:09:52.383Z,8.64
2019-03-08T00:10:52.425Z,8.50
2019-03-08T00:11:52.303Z,8.57
2019-03-08T00:12:52.350Z,8.55
2019-03-08T00:13:52.265Z,8.52
2019-03-08T00:14:52.262Z,8.54
2019-03-08T00:15:52.231Z,8.49
2019-03-08T00:16:52.290Z,8.50
2019-03-08T00:17:52.276Z,8.46
2019-03-08T00:19:10.262Z,8.52
2019-03-08T00:19:52.098Z,8.47
2019-03-08T00:21:52.036Z,8.54
2019-03-08T00:23:06.627Z,8.57
2019-03-08T00:23:51.970Z,8.49
2019-03-08T00:24:53.073Z,8.52
2019-03-08T00:25:51.909Z,8.54
2019-03-08T00:26:53.936Z,8.58
2019-03-08T00:27:51.855Z,8.47
2019-03-08T02:28:46.013Z,7.12
2019-03-08T02:29:44.164Z,7.23
2019-03-08T02:30:44.141Z,7.29
2019-03-08T02:31:44.099Z,7.24
2019-03-08T02:32:44.376Z,7.23
2019-03-08T02:33:44.033Z,7.27
2019-03-08T02:34:44.022Z,7.32
2019-03-08T02:35:43.975Z,7.32
2019-03-08T02:36:43.966Z,7.19
2019-03-08T02:37:43.939Z,7.30
2019-03-08T02:38:43.883Z,7.27
2019-03-08T02:39:43.900Z,7.30
2019-03-08T02:40:43.897Z,7.32
2019-03-08T02:41:43.805Z,7.33
2019-03-08T02:42:43.775Z,7.32
2019-03-08T02:43:43.742Z,7.32
2019-03-08T02:44:43.710Z,7.36
2019-03-08T02:45:43.694Z,7.41
2019-03-08T02:46:43.671Z,7.29
2019-03-08T02:47:43.624Z,7.30
2019-03-08T02:48:43.618Z,7.32
2019-03-08T02:49:43.597Z,7.24
2019-03-08T02:50:43.539Z,7.27
2019-03-08T02:51:43.509Z,7.37
2019-03-08T02:52:43.496Z,7.26
2019-03-08T02:53:43.467Z,7.30
2019-03-08T02:54:43.494Z,7.34
2019-03-08T02:55:43.409Z,7.27
2019-03-08T02:56:43.390Z,7.29
2019-03-08T02:57:43.344Z,7.37
2019-03-08T02:58:43.306Z,7.26
2019-03-08T02:59:43.334Z,7.32
2019-03-08T03:00:43.278Z,7.34
2019-03-08T03:01:43.229Z,7.26
2019-03-08T03:02:43.288Z,7.26
2019-03-08T03:03:43.178Z,7.32
2019-03-08T03:04:43.127Z,7.29
2019-03-08T03:05:43.098Z,7.29
2019-03-08T03:06:43.105Z,7.27
2019-03-08T03:07:43.045Z,7.33
2019-03-08T03:08:43.040Z,7.36
2019-03-08T03:09:43.008Z,7.36
2019-03-08T03:10:42.963Z,7.36
2019-03-08T03:11:43.097Z,7.30
2019-03-08T03:12:42.914Z,7.44
2019-03-08T03:13:44.955Z,7.44
2019-03-08T03:14:42.840Z,7.34
2019-03-08T03:15:42.928Z,7.33
2019-03-08T03:16:42.798Z,7.44
2019-03-08T03:17:43.916Z,7.37
2019-03-08T03:18:42.798Z,7.44
2019-03-08T03:19:42.710Z,7.37
2019-03-08T03:20:42.665Z,7.44
2019-03-08T03:21:42.653Z,7.48
2019-03-08T03:22:42.604Z,7.52
2019-03-08T03:23:42.675Z,7.45
2019-03-08T03:24:42.541Z,7.54
2019-03-08T03:25:42.614Z,7.50
2019-03-08T03:26:42.488Z,7.55
2019-03-08T03:27:42.525Z,7.60
2019-03-08T03:28:42.445Z,7.67
2019-03-08T03:29:42.505Z,7.58
2019-03-08T03:30:42.371Z,7.58
2019-03-08T03:31:49.089Z,7.67
2019-03-08T03:32:42.337Z,7.60
2019-03-08T03:33:42.326Z,7.63
2019-03-08T03:34:42.270Z,7.60
2019-03-08T03:35:42.245Z,7.69
2019-03-08T03:36:42.234Z,7.60
2019-03-08T03:37:42.235Z,7.71
2019-03-08T03:38:42.139Z,7.62
2019-03-08T03:39:42.159Z,7.71
2019-03-08T03:40:42.119Z,7.71
2019-03-08T03:41:42.088Z,7.73
2019-03-08T03:42:42.029Z,7.69
2019-03-08T03:43:42.105Z,7.73
2019-03-08T03:44:41.942Z,7.67
2019-03-08T03:45:42.060Z,7.74
2019-03-08T03:46:41.892Z,7.71
2019-03-08T03:47:41.946Z,7.73
2019-03-08T03:48:41.925Z,7.73
2019-03-08T03:49:41.836Z,7.73
2019-03-08T03:50:41.782Z,7.62
2019-03-08T03:51:41.860Z,7.70
2019-03-08T03:52:41.718Z,7.69
2019-03-08T03:53:41.759Z,7.69
2019-03-08T03:54:41.685Z,7.66
2019-03-08T03:55:41.669Z,7.60
2019-03-08T03:56:41.654Z,7.70
2019-03-08T04:00:53.772Z,7.71
2019-03-08T04:01:58.808Z,7.62
2019-03-08T04:02:52.137Z,7.66
2019-03-08T04:03:52.164Z,7.69
2019-03-08T04:04:52.054Z,7.63
2019-03-08T04:05:59.850Z,7.60
2019-03-08T04:06:51.980Z,7.67
2019-03-08T04:18:30.881Z,7.69
2019-03-08T04:19:29.557Z,7.58
2019-03-08T04:20:29.228Z,7.62
2019-03-08T04:21:29.168Z,7.70
2019-03-08T04:22:29.340Z,7.63
2019-03-08T04:23:29.097Z,7.66
2019-03-08T04:24:29.163Z,7.66
2019-03-08T04:25:29.049Z,7.62
2019-03-08T04:26:29.012Z,7.60
2019-03-08T04:27:29.029Z,7.69
2019-03-08T04:28:28.989Z,7.63
2019-03-08T04:29:28.925Z,7.60
2019-03-08T04:30:28.891Z,7.58
2019-03-08T04:31:28.893Z,7.55
2019-03-08T04:32:28.962Z,7.57
2019-03-08T04:33:28.814Z,7.55
2019-03-08T04:34:28.778Z,7.67
2019-03-08T04:35:28.740Z,7.62
2019-03-08T04:36:30.282Z,7.60
2019-03-08T04:37:28.713Z,7.62
2019-03-08T04:38:28.675Z,7.57
2019-03-08T04:39:28.715Z,7.60
2019-03-08T04:40:28.660Z,7.55
2019-03-08T04:41:28.589Z,7.54
2019-03-08T04:42:28.547Z,7.57
2019-03-08T04:43:28.517Z,7.67
2019-03-08T04:44:28.469Z,7.57
2019-03-08T04:45:28.439Z,7.57
2019-03-08T04:46:28.485Z,7.69
2019-03-08T04:47:28.408Z,7.69
2019-03-08T04:48:28.360Z,7.73
2019-03-08T04:49:28.322Z,7.62
2019-03-08T04:50:28.319Z,7.66
2019-03-08T04:51:28.266Z,7.67
2019-03-08T04:52:28.237Z,7.70
2019-03-08T04:53:28.223Z,7.67
2019-03-08T04:54:28.209Z,7.63
2019-03-08T04:55:28.171Z,7.63
2019-03-08T04:56:28.153Z,7.69
2019-03-08T04:57:28.091Z,7.63
2019-03-08T04:58:28.080Z,7.63
2019-03-08T04:59:28.038Z,7.67
2019-03-08T05:00:28.089Z,7.67
2019-03-08T05:01:27.980Z,7.67
2019-03-08T05:02:27.947Z,7.67
2019-03-08T05:03:30.087Z,7.71
2019-03-08T05:04:27.886Z,7.66
2019-03-08T05:05:48.913Z,7.74
2019-03-08T05:06:27.856Z,7.69
2019-03-08T05:08:27.842Z,7.67
2019-03-08T05:09:48.809Z,7.62
2019-03-08T05:10:27.717Z,7.71
2019-03-08T05:11:35.422Z,7.66
2019-03-08T05:12:27.682Z,7.66
2019-03-08T05:13:42.500Z,7.66
2019-03-08T05:14:27.639Z,7.67
2019-03-08T05:16:27.543Z,7.63
2019-03-08T05:17:28.640Z,7.71
2019-03-08T05:18:27.505Z,7.66
2019-03-08T05:19:29.562Z,7.71
2019-03-08T05:20:27.425Z,7.63
2019-03-08T05:21:28.421Z,7.66
2019-03-08T05:22:27.367Z,7.58
2019-03-08T05:23:27.484Z,7.67
2019-03-08T05:24:27.300Z,7.58
2019-03-08T05:25:28.336Z,7.58
2019-03-08T05:26:27.296Z,7.57
2019-03-08T05:27:27.221Z,7.60
2019-03-08T05:28:27.237Z,7.62
2019-03-08T05:29:27.251Z,7.62
2019-03-08T05:30:27.112Z,7.57
2019-03-08T05:31:27.199Z,7.66
2019-03-08T05:32:27.075Z,7.58
2019-03-08T05:33:27.081Z,7.69
2019-03-08T05:34:27.003Z,7.63
2019-03-08T05:35:27.100Z,7.58
2019-03-08T05:36:26.938Z,7.58
2019-03-08T05:37:26.988Z,7.60
2019-03-08T05:38:26.887Z,7.57
2019-03-08T05:39:26.980Z,7.57
2019-03-08T05:40:26.831Z,7.58
2019-03-08T05:41:26.827Z,7.54
2019-03-08T05:42:26.761Z,7.50
2019-03-08T05:43:26.869Z,7.51
2019-03-08T05:44:26.707Z,7.51
2019-03-08T05:45:26.867Z,7.54
2019-03-08T05:46:26.674Z,7.51
2019-03-08T05:47:26.663Z,7.50
2019-03-08T05:48:26.581Z,7.52
2019-03-08T05:49:26.669Z,7.58
2019-03-08T05:50:26.540Z,7.57
2019-03-08T05:51:26.587Z,7.58
2019-03-08T05:52:26.466Z,7.55
2019-03-08T05:53:26.492Z,7.54
2019-03-08T05:54:26.422Z,7.48
2019-03-08T05:55:26.512Z,7.54
2019-03-08T05:56:26.346Z,7.48
2019-03-08T05:57:26.393Z,7.45
2019-03-08T05:58:26.287Z,7.45
2019-03-08T05:59:26.311Z,7.44
2019-03-08T06:00:32.073Z,7.41
2019-03-08T06:01:26.222Z,7.48
2019-03-08T06:02:26.176Z,7.51
2019-03-08T06:03:26.226Z,7.42
2019-03-08T06:04:26.108Z,7.48
2019-03-08T06:05:26.162Z,7.51
2019-03-08T06:06:26.181Z,7.51
2019-03-08T06:07:26.053Z,7.52
2019-03-08T06:08:25.984Z,7.44
2019-03-08T06:09:26.083Z,7.47
2019-03-08T06:10:25.934Z,7.51
2019-03-08T06:11:25.996Z,7.39
2019-03-08T06:12:25.871Z,7.41
2019-03-08T06:13:25.853Z,7.42
2019-03-08T06:14:25.811Z,7.51
2019-03-08T06:15:25.784Z,7.45
2019-03-08T06:16:25.748Z,7.48
2019-03-08T06:17:25.779Z,7.48
2019-03-08T06:18:25.722Z,7.44
2019-03-08T06:19:26.745Z,7.44
2019-03-08T06:20:25.649Z,7.41
2019-03-08T06:21:27.731Z,7.42
2019-03-08T06:22:25.652Z,7.47
2019-03-08T06:24:01.522Z,7.47
2019-03-08T06:24:25.512Z,7.45
2019-03-08T06:25:25.501Z,7.52
2019-03-08T06:26:25.470Z,7.47
2019-03-08T06:27:32.470Z,7.50
2019-03-08T06:28:25.398Z,7.47
2019-03-08T06:29:27.446Z,7.44
2019-03-08T06:30:25.339Z,7.44
2019-03-08T06:31:25.310Z,7.45
2019-03-08T06:32:34.019Z,7.44
2019-03-08T06:33:25.249Z,7.42
2019-03-08T06:34:39.981Z,7.41
2019-03-08T06:35:25.194Z,7.41
2019-03-08T06:36:33.057Z,7.29
2019-03-08T06:37:25.128Z,7.26
2019-03-08T06:38:25.158Z,7.26
2019-03-08T06:39:25.055Z,7.30
2019-03-08T06:40:25.060Z,7.21
2019-03-08T06:41:25.005Z,7.15
2019-03-08T06:42:25.096Z,7.12
2019-03-08T06:43:24.938Z,7.11
2019-03-08T06:44:25.992Z,7.04
2019-03-08T06:45:24.888Z,7.12
2019-03-08T06:46:25.942Z,7.01
2019-03-08T06:47:24.824Z,7.07
2019-03-08T06:58:57.086Z,7.00
2019-03-08T06:59:55.549Z,7.09
2019-03-08T07:00:55.488Z,7.04
2019-03-08T07:01:55.567Z,7.04
2019-03-08T07:02:55.435Z,6.93
2019-03-08T07:03:55.411Z,6.94
2019-03-08T07:04:55.415Z,6.96
2019-03-08T07:05:55.404Z,6.90
2019-03-08T07:06:55.316Z,6.89
2019-03-08T07:07:55.283Z,6.97
2019-03-08T07:08:55.306Z,6.93
2019-03-08T07:09:55.229Z,6.89
2019-03-08T07:10:55.192Z,6.87
2019-03-08T07:11:55.173Z,6.93
2019-03-08T07:13:02.823Z,6.90
2019-03-08T07:13:55.120Z,6.90
2019-03-08T07:14:55.139Z,6.89
2019-03-08T07:15:55.048Z,7.05
2019-03-08T07:16:55.050Z,6.96
2019-03-08T07:17:54.992Z,7.07
2019-03-08T07:18:57.016Z,7.05
2019-03-08T07:19:54.943Z,7.07
2019-03-08T07:20:54.977Z,7.09
2019-03-08T07:21:54.868Z,7.09
2019-03-08T07:22:54.832Z,7.11
2019-03-08T07:23:54.910Z,7.15
2019-03-08T07:24:54.773Z,7.12
2019-03-08T07:25:54.804Z,7.09
2019-03-08T07:26:54.719Z,7.08
2019-03-08T07:27:55.737Z,7.11
2019-03-08T07:28:54.714Z,7.08
2019-03-08T07:29:54.729Z,7.12
2019-03-08T07:30:57.955Z,7.12
2019-03-08T07:31:54.641Z,7.11
2019-03-08T07:32:54.541Z,7.07
2019-03-08T07:33:54.552Z,7.08
2019-03-08T07:34:54.475Z,7.09
2019-03-08T07:36:02.152Z,7.04
2019-03-08T07:36:54.439Z,7.05
2019-03-08T07:37:54.391Z,7.11
2019-03-08T07:38:54.376Z,7.12
2019-03-08T07:39:54.441Z,7.14
2019-03-08T07:40:54.315Z,7.14
2019-03-08T07:42:23.253Z,7.08
2019-03-08T07:42:54.276Z,7.14
2019-03-08T07:43:54.268Z,7.18
2019-03-08T07:44:54.326Z,7.18
2019-03-08T07:45:54.203Z,7.24
2019-03-08T08:43:38.321Z,8.29
2019-03-08T08:44:35.554Z,8.28
2019-03-08T08:45:35.472Z,8.42
2019-03-08T08:46:35.741Z,8.31
2019-03-08T08:47:35.381Z,8.18
2019-03-08T08:48:35.376Z,8.24
2019-03-08T08:49:35.348Z,8.22
2019-03-08T08:50:35.757Z,8.22
2019-03-08T08:51:35.274Z,8.07
2019-03-08T08:52:35.281Z,8.27
2019-03-08T08:53:35.218Z,8.21
2019-03-08T08:54:35.199Z,8.21
2019-03-08T08:55:35.238Z,8.14
2019-03-08T08:56:35.129Z,8.07
2019-03-08T08:57:35.099Z,7.92
2019-03-08T08:58:35.083Z,7.85
2019-03-08T08:59:35.069Z,7.66
2019-03-08T09:00:35.042Z,7.60
2019-03-08T09:01:35.034Z,7.48
2019-03-08T09:02:34.958Z,7.26
2019-03-08T09:03:34.939Z,7.30
2019-03-08T09:04:34.947Z,7.24
2019-03-08T09:05:34.864Z,7.21
2019-03-08T09:06:34.838Z,7.37
2019-03-08T09:07:34.867Z,7.37
2019-03-08T09:08:34.766Z,7.50
2019-03-08T09:09:34.751Z,7.55
2019-03-08T09:10:34.720Z,7.63
2019-03-08T09:11:43.736Z,7.73
2019-03-08T09:12:34.661Z,7.76
2019-03-08T09:13:34.658Z,7.76
2019-03-08T09:14:34.642Z,7.74
2019-03-08T09:15:34.642Z,7.76
2019-03-08T09:16:34.575Z,7.81
2019-03-08T09:17:34.721Z,7.77
2019-03-08T09:18:34.485Z,7.73
2019-03-08T09:19:34.480Z,7.62
2019-03-08T09:20:34.523Z,7.73
2019-03-08T09:22:12.323Z,7.81
2019-03-08T09:22:34.447Z,7.74
2019-03-08T09:23:34.530Z,7.70
2019-03-08T09:25:11.393Z,7.81
2019-03-08T09:25:34.461Z,7.81
2019-03-08T09:26:34.273Z,7.74
2019-03-08T09:27:34.360Z,7.74
2019-03-08T09:28:34.228Z,7.63
2019-03-08T09:29:40.995Z,7.63
2019-03-08T09:30:34.124Z,7.57
2019-03-08T09:31:34.190Z,7.51
2019-03-08T09:32:34.075Z,7.50
2019-03-08T09:33:34.023Z,7.45
2019-03-08T09:34:33.997Z,7.44
2019-03-08T09:35:33.974Z,7.39
2019-03-08T09:36:33.947Z,7.32
2019-03-08T09:37:34.009Z,7.29
2019-03-08T09:38:33.884Z,7.16
2019-03-08T09:39:34.017Z,7.23
2019-03-08T09:40:33.833Z,7.29
2019-03-08T09:41:33.829Z,7.23
2019-03-08T09:42:33.829Z,7.32
2019-03-08T09:43:33.764Z,7.50
2019-03-08T09:44:33.704Z,7.66
2019-03-08T09:45:33.699Z,7.63
2019-03-08T09:46:33.749Z,7.71
2019-03-08T09:47:33.620Z,7.74
2019-03-08T09:48:33.637Z,7.82
2019-03-08T09:49:33.679Z,7.91
2019-03-08T09:50:33.571Z,7.94
2019-03-08T09:51:33.507Z,7.99
2019-03-08T09:52:33.611Z,8.25
2019-03-08T09:53:33.438Z,8.28
2019-03-08T09:54:33.402Z,8.36
2019-03-08T09:55:33.420Z,8.46
2019-03-08T09:56:33.387Z,8.39
2019-03-08T09:57:33.378Z,8.50
2019-03-08T09:58:33.361Z,8.60
2019-03-08T09:59:34.417Z,8.64
2019-03-08T10:00:33.267Z,8.65
2019-03-08T10:01:33.281Z,8.82
2019-03-08T10:02:33.192Z,8.83
2019-03-08T10:03:33.265Z,8.89
2019-03-08T10:04:33.129Z,8.80
2019-03-08T10:05:34.179Z,8.88
2019-03-08T10:06:33.084Z,8.85
2019-03-08T10:07:35.187Z,8.76
2019-03-08T10:08:33.014Z,8.89
2019-03-08T10:09:33.085Z,8.85
2019-03-08T10:10:32.938Z,8.91
2019-03-08T10:11:32.925Z,8.88
2019-03-08T10:12:32.870Z,9.04
2019-03-08T10:13:32.900Z,9.08
2019-03-08T10:14:32.824Z,9.12
2019-03-08T10:15:32.814Z,9.17
2019-03-08T10:16:32.767Z,9.27
2019-03-08T10:17:32.826Z,9.22
2019-03-08T10:18:32.722Z,9.08
2019-03-08T10:19:32.732Z,8.98
2019-03-08T10:20:32.652Z,9.01
2019-03-08T10:21:33.681Z,9.00
2019-03-08T10:22:32.609Z,9.01
2019-03-08T10:23:32.671Z,9.08
2019-03-08T10:24:32.556Z,9.03
2019-03-08T10:25:34.616Z,9.17
2019-03-08T10:26:32.547Z,9.17
2019-03-08T10:27:38.052Z,9.10
2019-03-08T10:28:32.480Z,9.12
2019-03-08T10:29:32.405Z,9.06
2019-03-08T10:30:33.438Z,9.08
2019-03-08T10:31:32.386Z,9.20
2019-03-08T10:32:37.232Z,9.23
2019-03-08T10:33:32.361Z,9.26
2019-03-08T10:34:32.429Z,9.53
2019-03-08T10:35:32.250Z,9.60
2019-03-08T10:36:33.313Z,9.74
2019-03-08T10:37:32.169Z,9.77
2019-03-08T10:38:34.206Z,9.71
2019-03-08T10:39:32.120Z,9.71
2019-03-08T10:40:32.117Z,9.91
2019-03-08T10:41:32.068Z,9.85
2019-03-08T10:42:32.068Z,9.75
2019-03-08T10:43:32.090Z,9.60
2019-03-08T10:44:31.998Z,9.53
2019-03-08T10:45:31.946Z,9.53
2019-03-08T10:46:31.999Z,9.50
2019-03-08T10:47:31.893Z,9.53
2019-03-08T10:48:31.904Z,9.48
2019-03-08T10:49:31.957Z,9.48
2019-03-08T10:50:31.775Z,9.42
2019-03-08T10:51:31.740Z,9.48
2019-03-08T10:52:31.861Z,9.53
2019-03-08T10:53:31.694Z,9.52
2019-03-08T10:54:31.760Z,9.62
2019-03-08T10:55:31.651Z,9.83
2019-03-08T10:56:31.659Z,9.85
2019-03-08T10:57:31.593Z,10.06
2019-03-08T10:58:33.683Z,10.18
2019-03-08T10:59:31.567Z,10.28
2019-03-08T11:00:33.575Z,10.24
2019-03-08T11:01:31.468Z,10.24
2019-03-08T11:02:31.520Z,10.06
2019-03-08T11:03:31.405Z,9.95
2019-03-08T11:04:32.440Z,9.95
2019-03-08T11:05:31.341Z,9.92
2019-03-08T11:06:31.342Z,9.70
2019-03-08T11:07:31.408Z,9.71
2019-03-08T11:08:31.256Z,9.68
2019-03-08T11:09:31.374Z,9.77
2019-03-08T11:10:31.201Z,9.81
2019-03-08T11:11:31.284Z,9.74
2019-03-08T11:12:31.164Z,9.93
2019-03-08T11:13:31.123Z,9.85
2019-03-08T11:14:31.183Z,9.78
2019-03-08T11:15:31.055Z,9.70
2019-03-08T11:16:31.139Z,9.70
2019-03-08T11:17:31.012Z,9.86
2019-03-08T11:18:31.000Z,9.78
2019-03-08T11:19:30.938Z,9.88
2019-03-08T11:20:31.002Z,9.91
2019-03-08T11:21:31.250Z,9.96
2019-03-08T11:22:30.923Z,10.01
2019-03-08T11:23:30.817Z,10.18
2019-03-08T11:24:30.783Z,10.26
2019-03-08T11:25:34.957Z,10.34
2019-03-08T11:26:30.840Z,10.58
2019-03-08T11:27:30.818Z,10.73
2019-03-08T11:28:30.678Z,10.88
2019-03-08T11:29:30.647Z,10.91
2019-03-08T11:30:30.655Z,10.90
2019-03-08T11:31:30.588Z,10.76
2019-03-08T11:32:30.674Z,10.80
2019-03-08T11:33:30.528Z,10.86
2019-03-08T11:34:30.615Z,10.95
2019-03-08T11:35:30.489Z,10.98
2019-03-08T11:36:30.497Z,11.02
2019-03-08T11:37:30.456Z,11.08
2019-03-08T11:38:30.499Z,11.09
2019-03-08T11:39:30.381Z,11.11
2019-03-08T11:40:30.441Z,11.19
2019-03-08T11:41:30.328Z,11.36
2019-03-08T11:42:30.306Z,11.33
2019-03-08T11:43:30.440Z,11.39
2019-03-08T11:44:30.200Z,11.51
2019-03-08T11:45:30.185Z,11.62
2019-03-08T11:46:30.167Z,11.74
2019-03-08T11:47:30.385Z,11.54
2019-03-08T11:48:30.135Z,11.53
2019-03-08T11:49:30.074Z,11.48
2019-03-08T11:50:30.062Z,11.30
2019-03-08T11:51:30.048Z,11.12
2019-03-08T11:52:30.105Z,10.94
2019-03-08T11:53:29.996Z,10.70
2019-03-08T11:54:30.020Z,10.66
2019-03-08T11:55:29.994Z,10.55
2019-03-08T11:56:29.936Z,10.35
2019-03-08T11:57:29.854Z,10.06
2019-03-08T11:58:29.821Z,9.88
2019-03-08T11:59:29.791Z,9.71
2019-03-08T12:00:29.771Z,9.52
2019-03-08T12:01:29.743Z,9.31
2019-03-08T12:02:37.522Z,9.40
2019-03-08T12:03:29.689Z,9.58
2019-03-08T12:04:29.782Z,9.58
2019-03-08T12:05:29.633Z,9.65
2019-03-08T12:06:29.601Z,9.58
2019-03-08T12:07:29.592Z,9.56
2019-03-08T12:08:29.552Z,9.60
2019-03-08T12:09:29.496Z,9.80
2019-03-08T12:10:29.487Z,9.75
2019-03-08T12:11:29.475Z,9.81
2019-03-08T12:12:29.525Z,9.83
2019-03-08T12:13:29.404Z,9.88
2019-03-08T12:14:29.418Z,9.78
2019-03-08T12:15:29.325Z,9.81
2019-03-08T12:16:29.341Z,9.78
2019-03-08T12:17:29.310Z,9.80
2019-03-08T12:18:29.411Z,9.88
2019-03-08T12:19:29.224Z,9.85
2019-03-08T12:20:29.218Z,9.95
2019-03-08T12:21:29.179Z,10.02
2019-03-08T12:22:29.158Z,10.14
2019-03-08T12:23:29.115Z,10.31
2019-03-08T12:24:29.083Z,10.39
2019-03-08T12:25:29.072Z,10.51
2019-03-08T12:26:29.036Z,10.80
2019-03-08T12:27:28.974Z,10.94
2019-03-08T12:28:28.968Z,11.19
2019-03-08T12:29:28.964Z,11.54
2019-03-08T12:30:28.898Z,11.57
2019-03-08T12:31:28.902Z,11.79
2019-03-08T12:32:28.869Z,11.93
2019-03-08T12:33:28.862Z,12.00
2019-03-08T12:34:28.910Z,12.04
2019-03-08T12:35:28.848Z,12.07
2019-03-08T12:36:28.748Z,11.96
2019-03-08T12:37:28.759Z,11.90
2019-03-08T12:38:28.713Z,11.75
2019-03-08T12:39:28.678Z,11.72
2019-03-08T12:40:28.673Z,11.75
2019-03-08T12:41:28.609Z,11.69
2019-03-08T12:42:28.601Z,11.56
2019-03-08T12:43:28.532Z,11.46
2019-03-08T12:44:28.609Z,11.27
2019-03-08T12:45:28.477Z,11.08
2019-03-08T12:46:28.545Z,11.06
2019-03-08T12:47:28.427Z,10.94
2019-03-08T12:48:28.438Z,10.91
2019-03-08T12:49:28.424Z,10.72
2019-03-08T12:50:28.438Z,10.28
2019-03-08T12:51:32.092Z,9.91
2019-03-08T12:52:35.329Z,9.71
2019-03-08T12:53:28.352Z,9.52
2019-03-08T12:54:28.351Z,9.48
2019-03-08T12:55:28.299Z,9.35
2019-03-08T12:56:28.154Z,9.30
2019-03-08T12:57:28.174Z,9.12
2019-03-08T12:58:28.185Z,9.00
2019-03-08T12:59:28.097Z,8.88
2019-03-08T13:00:28.063Z,8.83
2019-03-08T13:01:28.028Z,8.80
2019-03-08T13:02:28.112Z,8.75
2019-03-08T13:03:27.967Z,8.76
2019-03-08T13:04:27.954Z,8.82
2019-03-08T13:05:27.918Z,8.79
2019-03-08T13:06:27.886Z,8.83
2019-03-08T13:07:28.967Z,8.76
2019-03-08T13:08:27.827Z,8.83
2019-03-08T13:09:27.894Z,8.80
2019-03-08T13:10:27.916Z,8.89
2019-03-08T13:11:33.142Z,8.82
2019-03-08T13:12:27.812Z,8.86
2019-03-08T13:13:28.792Z,8.80
2019-03-08T13:14:27.668Z,8.93
2019-03-08T13:15:27.699Z,8.94
2019-03-08T13:16:27.615Z,9.10
2019-03-08T13:17:28.681Z,8.98
2019-03-08T13:18:27.604Z,9.10
2019-03-08T13:19:27.580Z,9.17
2019-03-08T13:20:27.504Z,9.26
2019-03-08T13:21:27.545Z,9.26
2019-03-08T13:22:27.451Z,9.31
2019-03-08T13:23:27.427Z,9.44
2019-03-08T13:24:27.426Z,9.58
2019-03-08T13:25:28.528Z,9.78
2019-03-08T13:26:27.337Z,9.88
2019-03-08T13:27:27.297Z,9.98
2019-03-08T13:28:27.344Z,9.95
2019-03-08T13:29:28.305Z,10.02
2019-03-08T13:30:27.220Z,10.25
2019-03-08T13:31:28.198Z,10.24
2019-03-08T13:32:27.144Z,10.51
2019-03-08T13:33:27.186Z,10.69
2019-03-08T13:34:27.123Z,10.83
2019-03-08T13:35:29.163Z,11.06
2019-03-08T13:36:27.070Z,11.27
2019-03-08T13:37:27.161Z,11.38
2019-03-08T13:38:26.979Z,11.36
2019-03-08T13:39:27.027Z,11.48
2019-03-08T13:40:26.919Z,11.51
2019-03-08T13:41:26.923Z,11.57
2019-03-08T13:42:26.874Z,11.60
2019-03-08T13:43:27.099Z,11.64
2019-03-08T13:45:26.819Z,11.77
2019-03-08T13:46:28.819Z,11.81
2019-03-08T13:47:26.727Z,11.64
2019-03-08T13:48:27.816Z,11.57
2019-03-08T13:49:26.750Z,11.53
2019-03-08T13:50:26.654Z,11.42
2019-03-08T13:51:27.757Z,11.26
2019-03-08T13:52:26.582Z,11.12
2019-03-08T13:53:26.611Z,11.05
2019-03-08T13:54:26.527Z,10.84
2019-03-08T13:55:26.548Z,10.51
2019-03-08T13:56:26.476Z,10.07
2019-03-08T13:57:26.556Z,9.85
2019-03-08T13:58:26.416Z,9.73
2019-03-08T13:59:26.448Z,9.38
2019-03-08T14:00:26.369Z,8.91
2019-03-08T14:01:26.356Z,8.86
2019-03-08T14:02:26.348Z,8.68
2019-03-08T14:03:26.381Z,8.43
2019-03-08T14:04:26.251Z,8.28
2019-03-08T14:05:26.300Z,8.20
2019-03-08T14:06:26.201Z,8.10
2019-03-08T14:07:26.187Z,8.07
2019-03-08T14:08:26.168Z,8.10
2019-03-08T14:09:26.222Z,8.03
2019-03-08T14:10:26.118Z,8.13
2019-03-08T14:11:26.115Z,8.12
2019-03-08T14:12:26.029Z,8.04
2019-03-08T14:13:27.058Z,8.21
2019-03-08T14:14:25.963Z,8.18
2019-03-08T14:15:26.039Z,8.27
2019-03-08T14:16:25.900Z,8.24
2019-03-08T14:17:25.969Z,8.27
2019-03-08T14:18:25.866Z,8.24
2019-03-08T14:19:25.821Z,8.27
2019-03-08T14:20:25.789Z,8.28
2019-03-08T14:21:25.779Z,8.29
2019-03-08T14:22:25.802Z,8.28
2019-03-08T14:23:25.776Z,8.24
2019-03-08T14:24:25.721Z,8.28
2019-03-08T14:25:25.741Z,8.29
2019-03-08T14:26:25.635Z,8.42
2019-03-08T14:27:25.667Z,8.36
2019-03-08T14:28:25.570Z,8.39
2019-03-08T14:29:25.538Z,8.36
2019-03-08T14:30:26.885Z,8.36
2019-03-08T14:31:25.629Z,8.28
2019-03-08T14:32:26.771Z,8.29
2019-03-08T14:33:25.465Z,8.36
2019-03-08T14:34:25.431Z,8.37
2019-03-08T14:35:26.069Z,8.42
2019-03-08T14:36:25.341Z,8.52
2019-03-08T14:37:25.433Z,8.71
2019-03-08T14:38:28.005Z,8.86
2019-03-08T14:39:25.277Z,8.86
2019-03-08T14:40:25.238Z,9.10
2019-03-08T14:41:25.205Z,8.97
2019-03-08T14:42:25.209Z,9.13
2019-03-08T14:43:25.167Z,9.16
2019-03-08T14:44:26.367Z,9.17
2019-03-08T14:45:25.122Z,9.19
2019-03-08T14:46:25.119Z,9.17
2019-03-08T14:47:25.037Z,9.12
2019-03-08T14:48:25.039Z,9.16
2019-03-08T14:49:25.096Z,8.98
2019-03-08T14:50:25.091Z,9.04
2019-03-08T14:51:24.945Z,9.10
2019-03-08T14:52:25.071Z,9.13
2019-03-08T14:53:28.519Z,9.20
2019-03-08T14:54:24.884Z,9.13
2019-03-08T14:55:24.853Z,9.17
2019-03-08T14:56:24.795Z,9.16
2019-03-08T14:57:27.383Z,9.15
2019-03-08T14:58:24.732Z,9.15
2019-03-08T14:59:24.848Z,9.20
2019-03-08T15:00:25.356Z,9.23
2019-03-08T15:01:24.800Z,9.15
2019-03-08T15:02:24.623Z,9.12
2019-03-08T15:03:24.836Z,9.19
2019-03-08T15:04:24.553Z,9.34
2019-03-08T15:05:24.534Z,9.24
2019-03-08T15:06:27.996Z,9.34
2019-03-08T15:07:24.623Z,9.49
2019-03-08T15:08:24.452Z,9.53
2019-03-08T15:09:24.410Z,9.63
2019-03-08T15:10:24.412Z,9.70
2019-03-08T15:11:24.776Z,9.68
2019-03-08T15:12:24.428Z,9.77
2019-03-08T15:13:25.764Z,9.81
2019-03-08T15:14:24.263Z,9.85
2019-03-08T15:15:24.366Z,9.81
2019-03-08T15:16:24.254Z,9.80
2019-03-08T15:17:24.260Z,9.75
2019-03-08T15:18:25.877Z,9.73
2019-03-08T15:19:24.160Z,9.78
2019-03-08T15:20:24.106Z,9.89
2019-03-08T15:21:24.176Z,9.99
2019-03-08T15:22:24.127Z,10.04
2019-03-08T15:23:24.194Z,10.06
2019-03-08T15:24:24.003Z,10.02
2019-03-08T15:25:23.960Z,10.16
2019-03-08T15:26:23.932Z,10.07
2019-03-08T15:27:24.016Z,10.07
2019-03-08T15:28:23.924Z,10.06
2019-03-08T15:29:23.855Z,10.02
2019-03-08T15:30:23.833Z,9.98
2019-03-08T15:31:23.789Z,9.93
2019-03-08T15:32:23.771Z,9.93
2019-03-08T15:33:23.736Z,9.98
2019-03-08T15:34:23.705Z,10.01
2019-03-08T15:35:23.691Z,9.99
2019-03-08T15:36:23.731Z,9.98
2019-03-08T15:37:23.631Z,9.99
2019-03-08T15:38:23.619Z,10.06
2019-03-08T15:39:23.592Z,9.98
2019-03-08T15:40:23.538Z,9.95
2019-03-08T15:41:25.135Z,9.99
2019-03-08T15:42:23.489Z,10.02
2019-03-08T15:43:23.460Z,10.09
2019-03-08T15:44:24.515Z,10.09
2019-03-08T15:45:23.399Z,10.14
2019-03-08T15:46:23.503Z,10.10
2019-03-08T15:47:24.061Z,10.10
2019-03-08T15:48:23.316Z,10.18
2019-03-08T15:49:26.650Z,10.11
2019-03-08T15:50:23.258Z,10.06
2019-03-08T15:51:25.377Z,10.06
2019-03-08T15:52:23.266Z,10.06
2019-03-08T15:53:23.179Z,10.01
2019-03-08T15:54:23.151Z,10.10
2019-03-08T15:55:23.125Z,10.14
2019-03-08T15:56:23.088Z,10.07
2019-03-08T15:57:23.057Z,10.06
2019-03-08T15:58:23.089Z,10.11
2019-03-08T15:59:23.034Z,9.99
2019-03-08T16:00:22.980Z,10.07
2019-03-08T16:01:22.954Z,10.11
2019-03-08T16:02:22.926Z,10.10
2019-03-08T16:03:22.933Z,10.10
2019-03-08T16:04:22.952Z,10.02
2019-03-08T16:05:23.963Z,10.06
2019-03-08T16:06:22.805Z,10.06
2019-03-08T16:07:23.222Z,10.02
2019-03-08T16:08:22.757Z,10.01
2019-03-08T16:09:22.855Z,9.99
2019-03-08T16:10:22.700Z,10.06
2019-03-08T16:11:22.751Z,9.95
2019-03-08T16:12:22.639Z,9.98
2019-03-08T16:13:22.667Z,9.93
2019-03-08T16:14:22.588Z,9.89
2019-03-08T16:38:20.686Z,9.65
2019-03-08T16:38:59.646Z,9.68
2019-03-08T16:39:59.651Z,9.58
2019-03-08T16:40:59.594Z,9.60
2019-03-08T16:42:21.743Z,9.60
2019-03-08T16:42:59.555Z,9.63
2019-03-08T17:17:18.672Z,9.30
2019-03-08T17:18:16.850Z,9.22
2019-03-08T17:19:16.872Z,9.23
2019-03-08T17:20:16.834Z,9.24
2019-03-08T17:21:17.791Z,9.31
2019-03-08T17:22:16.715Z,9.16
2019-03-08T17:23:16.685Z,9.17
2019-03-08T17:24:16.660Z,9.26
2019-03-08T17:25:17.725Z,9.26
2019-03-08T17:26:16.607Z,9.19
2019-03-08T17:27:16.576Z,9.15
2019-03-08T17:28:16.547Z,9.17
2019-03-08T17:29:16.560Z,9.13
2019-03-08T17:30:16.493Z,9.24
2019-03-08T17:31:16.514Z,9.16
2019-03-08T17:32:16.429Z,9.16
2019-03-08T17:33:18.431Z,9.20
2019-03-08T17:34:16.413Z,9.15